createdAt,value
2019-04-28T00:00:15.398Z,1005.57
2019-04-28T00:01:14.386Z,1005.61
2019-04-28T00:02:14.404Z,1005.61
2019-04-28T00:03:14.367Z,1005.66
2019-04-28T00:04:14.351Z,1005.65
2019-04-28T00:05:14.335Z,1005.68
2019-04-28T00:06:14.330Z,1005.66
2019-04-28T00:07:14.318Z,1005.64
2019-04-28T00:08:14.336Z,1005.66
2019-04-28T00:09:14.305Z,1005.73
2019-04-28T00:10:14.270Z,1005.68
2019-04-28T00:11:14.265Z,1005.75
2019-04-28T00:12:14.324Z,1005.77
2019-04-28T00:13:14.257Z,1005.77
2019-04-28T00:14:14.231Z,1005.71
2019-04-28T00:15:14.223Z,1005.73
2019-04-28T00:16:14.206Z,1005.74
2019-04-28T00:17:14.199Z,1005.71
2019-04-28T00:18:14.223Z,1005.67
2019-04-28T00:19:14.185Z,1005.66
2019-04-28T00:20:14.167Z,1005.70
2019-04-28T00:21:14.165Z,1005.77
2019-04-28T00:22:14.147Z,1005.68
2019-04-28T00:23:14.139Z,1005.76
2019-04-28T00:24:14.135Z,1005.74
2019-04-28T00:25:14.130Z,1005.74
2019-04-28T00:26:14.128Z,1005.76
2019-04-28T00:27:14.118Z,1005.78
2019-04-28T00:28:14.085Z,1005.78
2019-04-28T00:29:14.066Z,1005.73
2019-04-28T00:30:14.065Z,1005.79
2019-04-28T00:31:14.639Z,1005.75
2019-04-28T00:32:14.061Z,1005.74
2019-04-28T00:33:14.029Z,1005.76
2019-04-28T00:34:14.011Z,1005.80
2019-04-28T00:35:14.031Z,1005.80
2019-04-28T00:36:14.003Z,1005.83
2019-04-28T00:37:13.986Z,1005.80
2019-04-28T00:38:13.978Z,1005.83
2019-04-28T00:39:13.975Z,1005.79
2019-04-28T00:40:13.960Z,1005.79
2019-04-28T00:41:13.972Z,1005.77
2019-04-28T00:42:13.923Z,1005.73
2019-04-28T00:43:13.958Z,1005.74
2019-04-28T00:44:13.902Z,1005.74
2019-04-28T00:45:13.901Z,1005.79
2019-04-28T00:46:13.874Z,1005.77
2019-04-28T00:47:13.886Z,1005.74
2019-04-28T00:48:13.855Z,1005.72
2019-04-28T00:49:13.846Z,1005.75
2019-04-28T00:50:13.842Z,1005.79
2019-04-28T00:51:13.830Z,1005.75
2019-04-28T00:52:13.849Z,1005.80
2019-04-28T00:53:13.831Z,1005.80
2019-04-28T00:54:13.791Z,1005.82
2019-04-28T00:55:13.862Z,1005.84
2019-04-28T00:56:13.759Z,1005.81
2019-04-28T00:57:13.752Z,1005.79
2019-04-28T00:58:13.765Z,1005.81
2019-04-28T00:59:13.735Z,1005.83
2019-04-28T01:00:13.760Z,1005.83
2019-04-28T01:01:13.739Z,1005.84
2019-04-28T01:02:13.714Z,1005.82
2019-04-28T01:03:13.717Z,1005.86
2019-04-28T01:04:13.673Z,1005.81
2019-04-28T01:05:13.673Z,1005.86
2019-04-28T01:06:14.095Z,1005.82
2019-04-28T01:07:13.640Z,1005.87
2019-04-28T01:08:13.652Z,1005.86
2019-04-28T01:09:13.617Z,1005.85
2019-04-28T01:10:13.607Z,1005.83
2019-04-28T01:11:13.614Z,1005.84
2019-04-28T01:12:13.591Z,1005.88
2019-04-28T01:13:13.612Z,1005.90
2019-04-28T01:14:13.562Z,1005.89
2019-04-28T01:15:13.558Z,1005.94
2019-04-28T01:16:13.556Z,1005.87
2019-04-28T01:17:13.545Z,1005.91
2019-04-28T01:18:13.548Z,1005.94
2019-04-28T01:19:13.518Z,1005.91
2019-04-28T01:20:13.509Z,1005.93
2019-04-28T01:21:13.482Z,1005.97
2019-04-28T01:22:13.513Z,1005.97
2019-04-28T01:23:13.467Z,1005.98
2019-04-28T01:24:13.486Z,1005.99
2019-04-28T01:25:13.483Z,1006.05
2019-04-28T01:26:13.434Z,1006.04
2019-04-28T01:27:13.413Z,1006.09
2019-04-28T01:28:13.407Z,1006.07
2019-04-28T01:29:13.413Z,1006.09
2019-04-28T01:30:13.393Z,1006.10
2019-04-28T01:31:13.375Z,1006.16
2019-04-28T01:32:13.369Z,1006.09
2019-04-28T01:33:13.406Z,1006.10
2019-04-28T01:34:13.350Z,1006.11
2019-04-28T01:35:13.346Z,1006.09
2019-04-28T01:36:13.333Z,1006.11
2019-04-28T01:37:13.307Z,1006.13
2019-04-28T01:38:13.305Z,1006.07
2019-04-28T01:39:13.315Z,1006.08
2019-04-28T01:40:13.275Z,1006.07
2019-04-28T01:41:13.272Z,1006.10
2019-04-28T01:42:13.260Z,1006.13
2019-04-28T01:43:13.257Z,1006.12
2019-04-28T01:44:13.257Z,1006.11
2019-04-28T01:45:13.239Z,1006.16
2019-04-28T01:46:13.211Z,1006.18
2019-04-28T01:47:13.200Z,1006.18
2019-04-28T01:48:13.190Z,1006.14
2019-04-28T01:49:13.192Z,1006.24
2019-04-28T01:50:13.163Z,1006.24
2019-04-28T01:51:13.161Z,1006.21
2019-04-28T01:52:13.141Z,1006.24
2019-04-28T01:53:13.140Z,1006.23
2019-04-28T01:54:13.156Z,1006.21
2019-04-28T01:55:13.117Z,1006.22
2019-04-28T01:56:13.109Z,1006.22
2019-04-28T01:57:13.094Z,1006.21
2019-04-28T01:58:13.071Z,1006.25
2019-04-28T01:59:13.060Z,1006.28
2019-04-28T02:00:22.164Z,1006.26
2019-04-28T02:01:14.053Z,1006.32
2019-04-28T02:02:13.050Z,1006.28
2019-04-28T02:03:13.016Z,1006.31
2019-04-28T02:04:13.557Z,1006.31
2019-04-28T02:05:13.017Z,1006.33
2019-04-28T02:06:13.016Z,1006.36
2019-04-28T02:07:12.993Z,1006.32
2019-04-28T02:08:12.974Z,1006.34
2019-04-28T02:09:12.952Z,1006.30
2019-04-28T02:10:12.942Z,1006.33
2019-04-28T02:11:12.971Z,1006.33
2019-04-28T02:12:12.933Z,1006.30
2019-04-28T02:13:12.914Z,1006.35
2019-04-28T02:14:12.915Z,1006.34
2019-04-28T02:15:12.882Z,1006.32
2019-04-28T02:16:12.870Z,1006.36
2019-04-28T02:17:12.910Z,1006.38
2019-04-28T02:18:12.858Z,1006.35
2019-04-28T02:19:12.865Z,1006.39
2019-04-28T02:20:12.834Z,1006.32
2019-04-28T02:21:12.859Z,1006.37
2019-04-28T02:22:12.813Z,1006.33
2019-04-28T02:23:12.805Z,1006.34
2019-04-28T02:24:12.791Z,1006.31
2019-04-28T02:25:12.793Z,1006.37
2019-04-28T02:26:12.775Z,1006.38
2019-04-28T02:27:12.777Z,1006.32
2019-04-28T02:28:12.768Z,1006.34
2019-04-28T02:29:12.748Z,1006.37
2019-04-28T02:30:12.720Z,1006.39
2019-04-28T02:31:12.758Z,1006.44
2019-04-28T02:32:12.722Z,1006.45
2019-04-28T02:33:12.689Z,1006.46
2019-04-28T02:34:12.691Z,1006.50
2019-04-28T02:35:12.697Z,1006.46
2019-04-28T02:36:12.669Z,1006.51
2019-04-28T02:37:12.693Z,1006.51
2019-04-28T02:38:12.642Z,1006.51
2019-04-28T02:39:12.618Z,1006.51
2019-04-28T02:40:12.634Z,1006.54
2019-04-28T02:41:12.596Z,1006.50
2019-04-28T02:42:12.596Z,1006.52
2019-04-28T02:43:12.586Z,1006.53
2019-04-28T02:44:12.587Z,1006.52
2019-04-28T02:45:12.588Z,1006.56
2019-04-28T02:46:12.551Z,1006.53
2019-04-28T02:47:12.532Z,1006.56
2019-04-28T02:48:12.525Z,1006.49
2019-04-28T02:49:12.526Z,1006.62
2019-04-28T02:50:12.514Z,1006.57
2019-04-28T02:51:12.484Z,1006.60
2019-04-28T02:52:12.498Z,1006.63
2019-04-28T02:53:12.471Z,1006.64
2019-04-28T02:54:12.460Z,1006.66
2019-04-28T02:55:12.478Z,1006.64
2019-04-28T02:56:12.438Z,1006.64
2019-04-28T02:57:12.434Z,1006.68
2019-04-28T02:58:13.487Z,1006.74
2019-04-28T02:59:12.409Z,1006.77
2019-04-28T03:00:12.431Z,1006.75
2019-04-28T03:01:21.837Z,1006.78
2019-04-28T03:02:13.371Z,1006.83
2019-04-28T03:03:12.366Z,1006.86
2019-04-28T03:04:12.463Z,1006.84
2019-04-28T03:05:12.339Z,1006.86
2019-04-28T03:06:12.362Z,1006.85
2019-04-28T03:07:14.642Z,1006.86
2019-04-28T03:08:12.307Z,1006.85
2019-04-28T03:09:12.304Z,1006.85
2019-04-28T03:10:12.276Z,1006.84
2019-04-28T03:11:12.289Z,1006.86
2019-04-28T03:12:12.265Z,1006.90
2019-04-28T03:13:13.415Z,1006.89
2019-04-28T03:14:12.247Z,1006.93
2019-04-28T03:15:12.234Z,1006.97
2019-04-28T03:16:12.234Z,1006.94
2019-04-28T03:17:12.194Z,1006.94
2019-04-28T03:18:12.196Z,1006.97
2019-04-28T03:19:12.180Z,1006.98
2019-04-28T03:20:12.180Z,1006.96
2019-04-28T03:21:12.180Z,1006.97
2019-04-28T03:22:12.139Z,1006.95
2019-04-28T03:23:12.541Z,1006.91
2019-04-28T03:24:13.312Z,1006.99
2019-04-28T03:25:12.120Z,1007.00
2019-04-28T03:26:12.123Z,1006.96
2019-04-28T03:27:12.095Z,1006.97
2019-04-28T03:28:12.205Z,1006.99
2019-04-28T03:29:12.129Z,1006.97
2019-04-28T03:30:13.249Z,1006.98
2019-04-28T03:31:36.850Z,1006.98
2019-04-28T03:32:31.115Z,1006.98
2019-04-28T03:33:18.607Z,1007.01
2019-04-28T03:34:13.300Z,1006.99
2019-04-28T03:35:13.312Z,1006.99
2019-04-28T03:36:15.354Z,1007.00
2019-04-28T03:37:11.984Z,1007.01
2019-04-28T03:38:11.983Z,1007.04
2019-04-28T03:39:11.957Z,1007.01
2019-04-28T03:40:11.951Z,1006.99
2019-04-28T03:41:11.938Z,1007.00
2019-04-28T03:42:11.923Z,1007.05
2019-04-28T03:43:14.419Z,1007.00
2019-04-28T03:44:11.914Z,1007.05
2019-04-28T03:45:11.901Z,1007.02
2019-04-28T03:46:11.887Z,1007.06
2019-04-28T03:47:11.893Z,1007.04
2019-04-28T03:48:11.882Z,1007.07
2019-04-28T03:49:11.861Z,1007.09
2019-04-28T03:50:11.838Z,1007.06
2019-04-28T03:51:13.484Z,1007.08
2019-04-28T03:52:11.851Z,1007.15
2019-04-28T03:53:11.803Z,1007.15
2019-04-28T03:54:11.787Z,1007.12
2019-04-28T03:55:11.929Z,1007.14
2019-04-28T03:56:11.766Z,1007.17
2019-04-28T03:57:11.807Z,1007.19
2019-04-28T03:58:11.776Z,1007.16
2019-04-28T03:59:11.735Z,1007.20
2019-04-28T04:00:11.730Z,1007.18
2019-04-28T04:01:11.710Z,1007.23
2019-04-28T04:02:11.797Z,1007.23
2019-04-28T04:03:11.688Z,1007.25
2019-04-28T04:04:11.687Z,1007.25
2019-04-28T04:05:11.677Z,1007.24
2019-04-28T04:06:11.673Z,1007.28
2019-04-28T04:07:11.678Z,1007.25
2019-04-28T04:08:11.642Z,1007.20
2019-04-28T04:09:11.636Z,1007.26
2019-04-28T04:10:11.646Z,1007.27
2019-04-28T04:11:11.623Z,1007.25
2019-04-28T04:12:11.623Z,1007.27
2019-04-28T04:13:11.590Z,1007.32
2019-04-28T04:14:11.587Z,1007.31
2019-04-28T04:15:11.557Z,1007.31
2019-04-28T04:16:11.550Z,1007.33
2019-04-28T04:17:11.557Z,1007.33
2019-04-28T04:18:11.554Z,1007.32
2019-04-28T04:19:11.521Z,1007.32
2019-04-28T04:20:11.507Z,1007.36
2019-04-28T04:21:11.535Z,1007.39
2019-04-28T04:22:11.490Z,1007.42
2019-04-28T04:23:11.607Z,1007.43
2019-04-28T04:24:11.460Z,1007.39
2019-04-28T04:25:12.683Z,1007.42
2019-04-28T04:26:11.940Z,1007.44
2019-04-28T04:27:11.446Z,1007.43
2019-04-28T04:28:11.466Z,1007.43
2019-04-28T04:29:11.417Z,1007.41
2019-04-28T04:30:11.396Z,1007.46
2019-04-28T04:31:11.422Z,1007.46
2019-04-28T04:32:20.494Z,1007.46
2019-04-28T04:33:12.410Z,1007.47
2019-04-28T04:34:11.362Z,1007.50
2019-04-28T04:35:11.367Z,1007.48
2019-04-28T04:36:11.880Z,1007.50
2019-04-28T04:37:12.674Z,1007.52
2019-04-28T04:38:11.334Z,1007.52
2019-04-28T04:39:11.296Z,1007.57
2019-04-28T04:40:13.465Z,1007.56
2019-04-28T04:41:11.454Z,1007.57
2019-04-28T04:42:11.270Z,1007.62
2019-04-28T04:43:11.496Z,1007.58
2019-04-28T04:44:11.315Z,1007.61
2019-04-28T04:45:11.224Z,1007.63
2019-04-28T04:46:14.039Z,1007.67
2019-04-28T04:47:11.210Z,1007.65
2019-04-28T04:48:11.742Z,1007.68
2019-04-28T04:49:11.191Z,1007.68
2019-04-28T04:50:13.164Z,1007.71
2019-04-28T04:51:11.167Z,1007.72
2019-04-28T04:52:11.156Z,1007.74
2019-04-28T04:53:11.268Z,1007.77
2019-04-28T04:54:11.166Z,1007.81
2019-04-28T04:55:11.289Z,1007.78
2019-04-28T04:56:11.105Z,1007.85
2019-04-28T04:57:11.203Z,1007.83
2019-04-28T04:58:11.087Z,1007.75
2019-04-28T04:59:11.072Z,1007.79
2019-04-28T05:00:11.100Z,1007.73
2019-04-28T05:01:11.068Z,1007.73
2019-04-28T05:02:25.447Z,1007.75
2019-04-28T05:03:12.044Z,1007.66
2019-04-28T05:04:11.019Z,1007.69
2019-04-28T05:05:11.862Z,1007.72
2019-04-28T05:06:10.998Z,1007.74
2019-04-28T05:07:10.976Z,1007.77
2019-04-28T05:08:15.408Z,1007.78
2019-04-28T05:09:10.981Z,1007.78
2019-04-28T05:10:10.991Z,1007.81
2019-04-28T05:11:11.346Z,1007.83
2019-04-28T05:12:10.954Z,1007.84
2019-04-28T05:13:10.927Z,1007.81
2019-04-28T05:14:12.056Z,1007.80
2019-04-28T05:15:10.925Z,1007.84
2019-04-28T05:16:10.893Z,1007.83
2019-04-28T05:17:10.872Z,1007.87
2019-04-28T05:18:10.864Z,1007.85
2019-04-28T05:19:10.887Z,1007.83
2019-04-28T05:20:10.840Z,1007.87
2019-04-28T05:21:10.862Z,1007.92
2019-04-28T05:22:10.840Z,1007.92
2019-04-28T05:23:10.813Z,1007.97
2019-04-28T05:24:15.800Z,1007.98
2019-04-28T05:25:11.992Z,1008.01
2019-04-28T05:26:11.350Z,1008.09
2019-04-28T05:27:10.766Z,1008.10
2019-04-28T05:28:10.762Z,1008.17
2019-04-28T05:29:10.756Z,1008.21
2019-04-28T05:30:12.449Z,1008.30
2019-04-28T05:31:13.864Z,1008.31
2019-04-28T05:32:11.744Z,1008.35
2019-04-28T05:33:10.732Z,1008.33
2019-04-28T05:34:11.625Z,1008.34
2019-04-28T05:35:10.704Z,1008.39
2019-04-28T05:36:11.783Z,1008.44
2019-04-28T05:37:10.843Z,1008.45
2019-04-28T05:38:11.176Z,1008.47
2019-04-28T05:39:10.702Z,1008.55
2019-04-28T05:40:10.676Z,1008.48
2019-04-28T05:41:11.608Z,1008.50
2019-04-28T05:42:11.378Z,1008.48
2019-04-28T05:43:10.732Z,1008.50
2019-04-28T05:44:10.594Z,1008.54
2019-04-28T05:45:10.610Z,1008.58
2019-04-28T05:46:10.715Z,1008.57
2019-04-28T05:47:10.585Z,1008.55
2019-04-28T05:48:11.377Z,1008.57
2019-04-28T05:49:10.556Z,1008.55
2019-04-28T05:50:10.724Z,1008.51
2019-04-28T05:51:10.539Z,1008.53
2019-04-28T05:52:11.979Z,1008.53
2019-04-28T05:53:10.831Z,1008.57
2019-04-28T05:54:10.473Z,1008.58
2019-04-28T05:55:10.449Z,1008.56
2019-04-28T05:56:10.459Z,1008.54
2019-04-28T05:57:10.755Z,1008.51
2019-04-28T05:58:10.456Z,1008.58
2019-04-28T05:59:10.430Z,1008.53
2019-04-28T06:00:10.894Z,1008.55
2019-04-28T06:01:10.405Z,1008.58
2019-04-28T06:02:12.176Z,1008.59
2019-04-28T06:03:10.380Z,1008.54
2019-04-28T06:04:11.279Z,1008.52
2019-04-28T06:05:10.342Z,1008.52
2019-04-28T06:06:10.340Z,1008.50
2019-04-28T06:07:10.326Z,1008.55
2019-04-28T06:08:10.326Z,1008.55
2019-04-28T06:09:10.352Z,1008.54
2019-04-28T06:10:12.426Z,1008.47
2019-04-28T06:11:12.030Z,1008.43
2019-04-28T06:12:10.367Z,1008.42
2019-04-28T06:13:10.252Z,1008.46
2019-04-28T06:14:10.259Z,1008.45
2019-04-28T06:15:12.002Z,1008.51
2019-04-28T06:16:10.223Z,1008.53
2019-04-28T06:17:10.890Z,1008.52
2019-04-28T06:18:10.537Z,1008.55
2019-04-28T06:19:10.374Z,1008.52
2019-04-28T06:20:11.850Z,1008.50
2019-04-28T06:21:10.170Z,1008.53
2019-04-28T06:22:10.193Z,1008.52
2019-04-28T06:23:10.154Z,1008.50
2019-04-28T06:24:10.134Z,1008.48
2019-04-28T06:25:10.130Z,1008.54
2019-04-28T06:26:10.116Z,1008.55
2019-04-28T06:27:10.117Z,1008.57
2019-04-28T06:28:10.099Z,1008.53
2019-04-28T06:29:10.084Z,1008.62
2019-04-28T06:30:10.074Z,1008.56
2019-04-28T06:31:10.068Z,1008.56
2019-04-28T06:32:10.088Z,1008.57
2019-04-28T06:33:10.046Z,1008.54
2019-04-28T06:34:10.032Z,1008.52
2019-04-28T06:35:10.020Z,1008.56
2019-04-28T06:36:10.006Z,1008.57
2019-04-28T06:37:09.991Z,1008.57
2019-04-28T06:38:09.991Z,1008.61
2019-04-28T06:39:09.975Z,1008.60
2019-04-28T06:40:09.977Z,1008.64
2019-04-28T06:41:09.948Z,1008.62
2019-04-28T06:42:09.955Z,1008.64
2019-04-28T06:43:09.974Z,1008.67
2019-04-28T06:44:09.961Z,1008.66
2019-04-28T06:45:09.907Z,1008.68
2019-04-28T06:46:09.907Z,1008.70
2019-04-28T06:47:09.897Z,1008.72
2019-04-28T06:48:09.888Z,1008.71
2019-04-28T06:49:09.891Z,1008.67
2019-04-28T06:50:09.839Z,1008.71
2019-04-28T06:51:09.842Z,1008.74
2019-04-28T06:52:09.834Z,1008.78
2019-04-28T06:53:09.823Z,1008.77
2019-04-28T06:54:09.876Z,1008.73
2019-04-28T06:55:09.801Z,1008.74
2019-04-28T06:56:09.787Z,1008.76
2019-04-28T06:57:09.789Z,1008.76
2019-04-28T06:58:09.754Z,1008.73
2019-04-28T06:59:09.753Z,1008.74
2019-04-28T07:00:09.774Z,1008.81
2019-04-28T07:01:09.748Z,1008.80
2019-04-28T07:02:09.715Z,1008.75
2019-04-28T07:03:22.357Z,1008.79
2019-04-28T07:04:10.712Z,1008.81
2019-04-28T07:05:09.715Z,1008.78
2019-04-28T07:06:09.701Z,1008.78
2019-04-28T07:07:09.673Z,1008.80
2019-04-28T07:08:09.656Z,1008.83
2019-04-28T07:09:09.658Z,1008.86
2019-04-28T07:10:09.645Z,1008.90
2019-04-28T07:11:09.624Z,1008.89
2019-04-28T07:12:09.610Z,1008.87
2019-04-28T07:13:09.627Z,1008.91
2019-04-28T07:14:09.586Z,1008.86
2019-04-28T07:15:09.582Z,1008.90
2019-04-28T07:16:09.569Z,1008.87
2019-04-28T07:17:09.555Z,1008.90
2019-04-28T07:18:09.555Z,1008.89
2019-04-28T07:19:09.557Z,1008.89
2019-04-28T07:20:09.539Z,1008.87
2019-04-28T07:21:09.521Z,1008.88
2019-04-28T07:22:09.495Z,1008.88
2019-04-28T07:23:09.500Z,1008.97
2019-04-28T07:24:09.479Z,1008.93
2019-04-28T07:25:09.485Z,1008.95
2019-04-28T07:26:09.458Z,1008.95
2019-04-28T07:27:09.450Z,1008.91
2019-04-28T07:28:09.431Z,1008.93
2019-04-28T07:29:09.458Z,1008.97
2019-04-28T07:30:09.408Z,1008.99
2019-04-28T07:31:09.419Z,1009.00
2019-04-28T07:32:09.393Z,1008.99
2019-04-28T07:33:09.381Z,1009.03
2019-04-28T07:34:09.376Z,1009.04
2019-04-28T07:35:09.385Z,1009.04
2019-04-28T07:36:09.356Z,1009.03
2019-04-28T07:37:09.339Z,1009.02
2019-04-28T07:38:09.330Z,1009.03
2019-04-28T07:39:09.313Z,1008.96
2019-04-28T07:40:09.292Z,1009.02
2019-04-28T07:41:09.302Z,1009.09
2019-04-28T07:42:09.277Z,1009.10
2019-04-28T07:43:09.253Z,1009.03
2019-04-28T07:44:09.261Z,1009.06
2019-04-28T07:45:09.250Z,1009.07
2019-04-28T07:46:09.255Z,1009.09
2019-04-28T07:47:09.236Z,1009.13
2019-04-28T07:48:09.202Z,1009.15
2019-04-28T07:49:09.200Z,1009.13
2019-04-28T07:50:09.189Z,1009.22
2019-04-28T07:51:09.207Z,1009.20
2019-04-28T07:52:09.165Z,1009.17
2019-04-28T07:53:09.156Z,1009.23
2019-04-28T07:54:09.143Z,1009.25
2019-04-28T07:55:09.129Z,1009.25
2019-04-28T07:56:09.128Z,1009.30
2019-04-28T07:57:09.127Z,1009.32
2019-04-28T07:58:09.102Z,1009.36
2019-04-28T07:59:09.092Z,1009.38
2019-04-28T08:00:09.075Z,1009.40
2019-04-28T08:01:09.121Z,1009.42
2019-04-28T08:02:09.090Z,1009.37
2019-04-28T08:03:09.061Z,1009.44
2019-04-28T08:04:09.046Z,1009.44
2019-04-28T08:05:09.026Z,1009.42
2019-04-28T08:06:09.012Z,1009.45
2019-04-28T08:07:08.989Z,1009.51
2019-04-28T08:08:09.002Z,1009.51
2019-04-28T08:09:08.990Z,1009.53
2019-04-28T08:10:08.984Z,1009.57
2019-04-28T08:11:08.956Z,1009.56
2019-04-28T08:12:08.936Z,1009.59
2019-04-28T08:13:08.953Z,1009.59
2019-04-28T08:14:08.920Z,1009.55
2019-04-28T08:15:08.905Z,1009.64
2019-04-28T08:16:08.895Z,1009.61
2019-04-28T08:17:08.890Z,1009.61
2019-04-28T08:18:08.916Z,1009.68
2019-04-28T08:19:08.884Z,1009.62
2019-04-28T08:20:08.850Z,1009.62
2019-04-28T08:21:08.834Z,1009.63
2019-04-28T08:22:08.837Z,1009.66
2019-04-28T08:23:08.821Z,1009.69
2019-04-28T08:24:08.836Z,1009.66
2019-04-28T08:25:08.785Z,1009.73
2019-04-28T08:26:08.785Z,1009.74
2019-04-28T08:27:08.764Z,1009.80
2019-04-28T08:28:08.767Z,1009.82
2019-04-28T08:29:08.758Z,1009.80
2019-04-28T08:30:08.761Z,1009.81
2019-04-28T08:31:08.737Z,1009.82
2019-04-28T08:32:08.715Z,1009.81
2019-04-28T08:33:08.703Z,1009.86
2019-04-28T08:34:08.700Z,1009.90
2019-04-28T08:35:08.688Z,1009.92
2019-04-28T08:36:08.709Z,1009.89
2019-04-28T08:37:08.667Z,1009.90
2019-04-28T08:38:08.651Z,1009.90
2019-04-28T08:39:08.638Z,1009.96
2019-04-28T08:40:08.642Z,1010.00
2019-04-28T08:41:08.650Z,1009.96
2019-04-28T08:42:08.622Z,1010.01
2019-04-28T08:43:08.615Z,1010.01
2019-04-28T08:44:08.585Z,1010.11
2019-04-28T08:45:08.573Z,1010.08
2019-04-28T08:46:08.595Z,1010.10
2019-04-28T08:47:08.548Z,1010.07
2019-04-28T08:48:08.553Z,1010.11
2019-04-28T08:49:08.536Z,1010.14
2019-04-28T08:50:08.532Z,1010.17
2019-04-28T08:51:08.515Z,1010.17
2019-04-28T08:52:08.527Z,1010.12
2019-04-28T08:53:08.483Z,1010.18
2019-04-28T08:54:08.492Z,1010.16
2019-04-28T08:55:08.471Z,1010.23
2019-04-28T08:56:08.446Z,1010.25
2019-04-28T08:57:08.442Z,1010.23
2019-04-28T08:58:08.445Z,1010.22
2019-04-28T08:59:08.422Z,1010.28
2019-04-28T09:00:08.423Z,1010.26
2019-04-28T09:01:08.405Z,1010.31
2019-04-28T09:02:08.402Z,1010.25
2019-04-28T09:03:08.428Z,1010.22
2019-04-28T09:04:15.080Z,1010.29
2019-04-28T09:05:09.362Z,1010.32
2019-04-28T09:06:08.336Z,1010.29
2019-04-28T09:07:08.322Z,1010.31
2019-04-28T09:08:08.354Z,1010.35
2019-04-28T09:09:08.321Z,1010.37
2019-04-28T09:10:08.296Z,1010.34
2019-04-28T09:11:08.303Z,1010.37
2019-04-28T09:12:08.283Z,1010.33
2019-04-28T09:13:08.291Z,1010.33
2019-04-28T09:14:08.256Z,1010.35
2019-04-28T09:15:08.260Z,1010.29
2019-04-28T09:16:08.233Z,1010.33
2019-04-28T09:17:08.216Z,1010.33
2019-04-28T09:18:08.237Z,1010.33
2019-04-28T09:19:08.199Z,1010.36
2019-04-28T09:20:08.187Z,1010.37
2019-04-28T09:21:08.186Z,1010.38
2019-04-28T09:22:08.180Z,1010.43
2019-04-28T09:23:08.161Z,1010.42
2019-04-28T09:24:08.163Z,1010.40
2019-04-28T09:25:08.134Z,1010.38
2019-04-28T09:26:08.127Z,1010.45
2019-04-28T09:27:08.114Z,1010.46
2019-04-28T09:28:08.113Z,1010.42
2019-04-28T09:29:08.118Z,1010.45
2019-04-28T09:30:08.076Z,1010.51
2019-04-28T09:31:08.062Z,1010.54
2019-04-28T09:32:08.067Z,1010.50
2019-04-28T09:33:08.057Z,1010.55
2019-04-28T09:34:08.045Z,1010.54
2019-04-28T09:35:08.067Z,1010.45
2019-04-28T09:36:08.013Z,1010.54
2019-04-28T09:37:08.014Z,1010.51
2019-04-28T09:38:07.980Z,1010.47
2019-04-28T09:39:07.981Z,1010.45
2019-04-28T09:40:08.016Z,1010.47
2019-04-28T09:41:07.960Z,1010.52
2019-04-28T09:42:07.935Z,1010.55
2019-04-28T09:43:07.936Z,1010.55
2019-04-28T09:44:07.927Z,1010.49
2019-04-28T09:45:07.915Z,1010.49
2019-04-28T09:46:07.925Z,1010.49
2019-04-28T09:47:07.897Z,1010.48
2019-04-28T09:48:07.876Z,1010.53
2019-04-28T09:49:07.862Z,1010.57
2019-04-28T09:50:07.855Z,1010.59
2019-04-28T09:51:07.862Z,1010.56
2019-04-28T09:52:07.833Z,1010.61
2019-04-28T09:53:07.835Z,1010.58
2019-04-28T09:54:07.820Z,1010.57
2019-04-28T09:55:07.815Z,1010.64
2019-04-28T09:56:07.819Z,1010.59
2019-04-28T09:57:07.774Z,1010.66
2019-04-28T09:58:07.770Z,1010.67
2019-04-28T09:59:07.762Z,1010.68
2019-04-28T10:00:07.739Z,1010.65
2019-04-28T10:01:07.732Z,1010.69
2019-04-28T10:02:07.738Z,1010.63
2019-04-28T10:03:07.701Z,1010.67
2019-04-28T10:04:07.703Z,1010.68
2019-04-28T10:05:07.703Z,1010.67
2019-04-28T10:06:07.700Z,1010.69
2019-04-28T10:07:07.720Z,1010.71
2019-04-28T10:08:07.671Z,1010.68
2019-04-28T10:09:07.635Z,1010.68
2019-04-28T10:10:07.637Z,1010.70
2019-04-28T10:11:07.624Z,1010.66
2019-04-28T10:12:07.622Z,1010.71
2019-04-28T10:13:07.613Z,1010.73
2019-04-28T10:14:07.587Z,1010.74
2019-04-28T10:15:07.582Z,1010.74
2019-04-28T10:16:07.568Z,1010.83
2019-04-28T10:17:07.590Z,1010.80
2019-04-28T10:18:07.662Z,1010.80
2019-04-28T10:19:07.544Z,1010.80
2019-04-28T10:20:07.523Z,1010.80
2019-04-28T10:21:07.505Z,1010.83
2019-04-28T10:22:07.519Z,1010.77
2019-04-28T10:23:07.511Z,1010.82
2019-04-28T10:24:07.488Z,1010.84
2019-04-28T10:25:07.539Z,1010.89
2019-04-28T10:26:07.469Z,1010.91
2019-04-28T10:27:07.452Z,1010.92
2019-04-28T10:28:07.458Z,1010.84
2019-04-28T10:29:07.428Z,1010.86
2019-04-28T10:30:07.417Z,1010.89
2019-04-28T10:31:07.422Z,1010.85
2019-04-28T10:32:07.417Z,1010.90
2019-04-28T10:33:07.409Z,1010.85
2019-04-28T10:34:07.364Z,1010.86
2019-04-28T10:35:07.358Z,1010.85
2019-04-28T10:36:07.355Z,1010.81
2019-04-28T10:37:07.343Z,1010.83
2019-04-28T10:38:07.350Z,1010.86
2019-04-28T10:39:07.352Z,1010.81
2019-04-28T10:40:07.303Z,1010.86
2019-04-28T10:41:07.290Z,1010.85
2019-04-28T10:42:07.276Z,1010.85
2019-04-28T10:43:07.273Z,1010.86
2019-04-28T10:44:08.677Z,1010.82
2019-04-28T10:45:07.291Z,1010.78
2019-04-28T10:46:07.235Z,1010.78
2019-04-28T10:47:07.224Z,1010.80
2019-04-28T10:48:07.244Z,1010.83
2019-04-28T10:49:07.212Z,1010.82
2019-04-28T10:50:07.199Z,1010.86
2019-04-28T10:51:07.193Z,1010.87
2019-04-28T10:52:07.168Z,1010.89
2019-04-28T10:53:07.186Z,1010.86
2019-04-28T10:54:07.167Z,1010.86
2019-04-28T10:55:07.135Z,1010.80
2019-04-28T10:56:07.137Z,1010.89
2019-04-28T10:57:07.121Z,1010.86
2019-04-28T10:58:07.144Z,1010.94
2019-04-28T10:59:07.105Z,1010.83
2019-04-28T11:00:07.108Z,1010.95
2019-04-28T11:01:07.070Z,1010.94
2019-04-28T11:02:07.070Z,1010.93
2019-04-28T11:03:07.065Z,1010.95
2019-04-28T11:04:07.066Z,1010.92
2019-04-28T11:05:08.623Z,1011.00
2019-04-28T11:06:07.023Z,1010.92
2019-04-28T11:07:07.019Z,1010.96
2019-04-28T11:08:07.008Z,1011.05
2019-04-28T11:09:06.985Z,1011.04
2019-04-28T11:10:06.999Z,1011.05
2019-04-28T11:11:06.970Z,1011.06
2019-04-28T11:12:06.962Z,1010.99
2019-04-28T11:13:06.963Z,1011.03
2019-04-28T11:14:06.954Z,1011.04
2019-04-28T11:15:06.915Z,1011.02
2019-04-28T11:16:06.940Z,1011.01
2019-04-28T11:17:06.904Z,1011.07
2019-04-28T11:18:06.907Z,1011.05
2019-04-28T11:19:06.871Z,1011.02
2019-04-28T11:20:06.887Z,1011.04
2019-04-28T11:21:06.862Z,1011.11
2019-04-28T11:22:06.852Z,1011.02
2019-04-28T11:23:06.861Z,1010.98
2019-04-28T11:24:06.817Z,1011.08
2019-04-28T11:25:06.807Z,1011.03
2019-04-28T11:26:06.800Z,1011.07
2019-04-28T11:27:06.784Z,1011.03
2019-04-28T11:28:06.784Z,1011.03
2019-04-28T11:29:06.808Z,1011.05
2019-04-28T11:30:06.767Z,1011.05
2019-04-28T11:31:06.747Z,1010.99
2019-04-28T11:32:06.727Z,1011.07
2019-04-28T11:33:06.715Z,1011.06
2019-04-28T11:34:06.731Z,1011.06
2019-04-28T11:35:06.739Z,1011.04
2019-04-28T11:36:06.702Z,1011.09
2019-04-28T11:37:06.670Z,1011.09
2019-04-28T11:38:06.666Z,1011.06
2019-04-28T11:39:06.658Z,1011.09
2019-04-28T11:40:06.659Z,1011.12
2019-04-28T11:41:06.674Z,1011.08
2019-04-28T11:42:06.632Z,1011.09
2019-04-28T11:43:06.613Z,1011.11
2019-04-28T11:44:06.614Z,1011.11
2019-04-28T11:45:06.583Z,1011.11
2019-04-28T11:46:06.577Z,1011.09
2019-04-28T11:47:06.574Z,1011.12
2019-04-28T11:48:06.586Z,1011.07
2019-04-28T11:49:06.552Z,1011.11
2019-04-28T11:50:06.535Z,1011.07
2019-04-28T11:51:06.513Z,1011.12
2019-04-28T11:52:06.523Z,1011.10
2019-04-28T11:53:06.533Z,1011.11
2019-04-28T11:54:06.507Z,1011.09
2019-04-28T11:55:06.485Z,1011.10
2019-04-28T11:56:06.464Z,1011.10
2019-04-28T11:57:06.447Z,1011.10
2019-04-28T11:58:06.438Z,1011.07
2019-04-28T11:59:06.453Z,1011.08
2019-04-28T12:00:06.428Z,1011.11
2019-04-28T12:01:06.410Z,1011.08
2019-04-28T12:02:06.409Z,1011.10
2019-04-28T12:03:06.398Z,1011.03
2019-04-28T12:04:06.371Z,1011.11
2019-04-28T12:05:06.394Z,1011.08